aviador You're here:

KXMR Decoded Metar

CAPE CANAVERAL in FL, USA
Report Time2018-06-23 05:56:00
UTC Time2018-06-23 06:09:57
Flight Rules vfr VFR
Wind220° at 05 kt
W.Decomp.*RWY 31: 0.3 kt HW 5 kt LCW
W.Rank220° ranks 29
Current wind is below 220° avg. (6.4)
Visibility9999 m
Phenomena:N/A
Clouds:Scattered 200 Hf
Expected CloudBase > 800 ft AGL from Temp-Dew spread
CeilingNone
Temp26°C (ISA +11)
Dew Point24°C (89% RH)
QNH1015 hPa
Density Alt1,608 ft
Elevation10 ft
Report Wrong Elevation
Raw Report
KXMR 230556Z AUTO 22005KT 9SM SCT200 26/24 A2997 RMK AO2 SLP152
T02620238 10263 20250 58002 $=

Extra information for KXMR:More info

Metar Taf Metar & Taf Last 4 Metars F.Rules Stats Wind Profile Meteogram Temp Stats Airport Information Weather charts Add Link Nearby VenuesMetar ALERT Operation Metar Decoded Social comments

AIRNAV info for KXMR